sensor_id;sensor_type;location;lat;lon;timestamp;pressure;altitude;pressure_sealevel;temperature;humidity
41624;BME280;27319;50.306;18.926;2022-10-31T00:01:36;98676.44;;;11.55;94.46
41624;BME280;27319;50.306;18.926;2022-10-31T00:04:37;98666.19;;;11.50;94.18
41624;BME280;27319;50.306;18.926;2022-10-31T00:07:38;98669.03;;;11.49;94.08
41624;BME280;27319;50.306;18.926;2022-10-31T00:10:40;98669.69;;;11.51;93.99
41624;BME280;27319;50.306;18.926;2022-10-31T00:13:41;98670.38;;;11.53;93.65
41624;BME280;27319;50.306;18.926;2022-10-31T00:16:42;98664.31;;;11.43;93.85
41624;BME280;27319;50.306;18.926;2022-10-31T00:19:43;98675.72;;;11.45;93.49
41624;BME280;27319;50.306;18.926;2022-10-31T00:22:44;98671.19;;;11.45;93.19
41624;BME280;27319;50.306;18.926;2022-10-31T00:25:45;98667.31;;;11.40;93.44
41624;BME280;27319;50.306;18.926;2022-10-31T00:29:05;98667.13;;;11.33;93.22
41624;BME280;27319;50.306;18.926;2022-10-31T00:33:06;98662.88;;;11.23;93.42
41624;BME280;27319;50.306;18.926;2022-10-31T00:37:07;98665.03;;;11.11;92.85
41624;BME280;27319;50.306;18.926;2022-10-31T00:41:08;98663.06;;;11.21;93.38
41624;BME280;27319;50.306;18.926;2022-10-31T00:44:48;98662.19;;;11.21;93.45
41624;BME280;27319;50.306;18.926;2022-10-31T00:47:49;98672.22;;;11.11;93.10
41624;BME280;27319;50.306;18.926;2022-10-31T00:50:50;98675.63;;;11.13;93.68
41624;BME280;27319;50.306;18.926;2022-10-31T00:53:51;98669.50;;;11.03;93.54
41624;BME280;27319;50.306;18.926;2022-10-31T00:56:52;98671.19;;;11.04;93.54
41624;BME280;27319;50.306;18.926;2022-10-31T00:59:53;98673.03;;;11.03;93.31
41624;BME280;27319;50.306;18.926;2022-10-31T01:03:14;98666.13;;;11.01;93.10
41624;BME280;27319;50.306;18.926;2022-10-31T01:07:14;98663.44;;;11.01;92.82
41624;BME280;27319;50.306;18.926;2022-10-31T01:11:28;98669.81;;;11.00;93.61
41624;BME280;27319;50.306;18.926;2022-10-31T01:15:28;98668.09;;;10.91;93.05
41624;BME280;27319;50.306;18.926;2022-10-31T01:19:29;98669.78;;;10.92;92.94
41624;BME280;27319;50.306;18.926;2022-10-31T01:23:29;98671.44;;;10.85;92.91
41624;BME280;27319;50.306;18.926;2022-10-31T01:27:31;98665.00;;;10.78;92.86
41624;BME280;27319;50.306;18.926;2022-10-31T01:31:32;98672.06;;;10.79;93.34
41624;BME280;27319;50.306;18.926;2022-10-31T01:35:31;98673.03;;;10.78;93.09
41624;BME280;27319;50.306;18.926;2022-10-31T01:39:14;98668.75;;;10.85;93.58
41624;BME280;27319;50.306;18.926;2022-10-31T01:42:35;98666.59;;;10.88;92.72
41624;BME280;27319;50.306;18.926;2022-10-31T01:46:37;98670.91;;;10.82;92.63
41624;BME280;27319;50.306;18.926;2022-10-31T01:50:46;98662.28;;;10.70;92.53
41624;BME280;27319;50.306;18.926;2022-10-31T01:58:36;98657.25;;;10.67;92.48
41624;BME280;27319;50.306;18.926;2022-10-31T02:05:24;98660.59;;;10.69;92.80
41624;BME280;27319;50.306;18.926;2022-10-31T02:08:29;98659.56;;;10.62;92.67
41624;BME280;27319;50.306;18.926;2022-10-31T02:11:30;98668.91;;;10.58;93.00
41624;BME280;27319;50.306;18.926;2022-10-31T02:14:33;98657.75;;;10.45;92.70
41624;BME280;27319;50.306;18.926;2022-10-31T02:17:34;98665.44;;;10.40;93.01
41624;BME280;27319;50.306;18.926;2022-10-31T02:20:47;98664.75;;;10.38;93.38
41624;BME280;27319;50.306;18.926;2022-10-31T02:34:35;98671.81;;;10.39;92.46
41624;BME280;27319;50.306;18.926;2022-10-31T02:37:54;98679.84;;;10.39;92.53
41624;BME280;27319;50.306;18.926;2022-10-31T02:41:26;98666.59;;;10.20;92.50
41624;BME280;27319;50.306;18.926;2022-10-31T02:47:37;98673.97;;;10.01;92.39
41624;BME280;27319;50.306;18.926;2022-10-31T02:50:42;98679.28;;;10.10;93.20
41624;BME280;27319;50.306;18.926;2022-10-31T02:53:46;98677.81;;;10.16;92.90
41624;BME280;27319;50.306;18.926;2022-10-31T02:56:48;98671.22;;;10.10;92.59
41624;BME280;27319;50.306;18.926;2022-10-31T03:00:14;98681.16;;;10.00;92.33
41624;BME280;27319;50.306;18.926;2022-10-31T03:11:17;98685.78;;;10.08;93.00
41624;BME280;27319;50.306;18.926;2022-10-31T03:15:27;98687.97;;;9.95;92.95
41624;BME280;27319;50.306;18.926;2022-10-31T03:19:34;98687.19;;;10.02;92.83
41624;BME280;27319;50.306;18.926;2022-10-31T03:23:31;98691.31;;;10.06;92.88
41624;BME280;27319;50.306;18.926;2022-10-31T03:27:33;98690.88;;;10.01;92.69
41624;BME280;27319;50.306;18.926;2022-10-31T03:31:33;98686.47;;;9.92;92.49
41624;BME280;27319;50.306;18.926;2022-10-31T03:35:33;98701.38;;;9.95;92.66
41624;BME280;27319;50.306;18.926;2022-10-31T03:39:34;98708.88;;;9.91;92.57
41624;BME280;27319;50.306;18.926;2022-10-31T03:43:36;98705.06;;;9.94;92.15
41624;BME280;27319;50.306;18.926;2022-10-31T03:47:35;98709.28;;;9.96;92.73
41624;BME280;27319;50.306;18.926;2022-10-31T03:55:07;98717.53;;;9.85;91.97
41624;BME280;27319;50.306;18.926;2022-10-31T03:59:25;98711.16;;;9.86;91.99
41624;BME280;27319;50.306;18.926;2022-10-31T04:03:19;98712.38;;;9.74;91.95
41624;BME280;27319;50.306;18.926;2022-10-31T04:06:22;98720.44;;;9.74;92.19
41624;BME280;27319;50.306;18.926;2022-10-31T04:09:26;98715.28;;;9.63;92.47
41624;BME280;27319;50.306;18.926;2022-10-31T04:12:29;98720.28;;;9.58;93.08
41624;BME280;27319;50.306;18.926;2022-10-31T04:15:32;98723.31;;;9.63;92.86
41624;BME280;27319;50.306;18.926;2022-10-31T04:18:33;98720.50;;;9.65;92.73
41624;BME280;27319;50.306;18.926;2022-10-31T04:21:35;98722.03;;;9.67;92.56
41624;BME280;27319;50.306;18.926;2022-10-31T04:24:37;98724.72;;;9.67;92.40
41624;BME280;27319;50.306;18.926;2022-10-31T04:27:40;98723.44;;;9.71;92.45
41624;BME280;27319;50.306;18.926;2022-10-31T04:30:40;98715.19;;;9.55;92.16
41624;BME280;27319;50.306;18.926;2022-10-31T04:33:41;98721.69;;;9.35;91.62
41624;BME280;27319;50.306;18.926;2022-10-31T04:36:42;98723.31;;;9.46;92.86
41624;BME280;27319;50.306;18.926;2022-10-31T04:39:43;98730.06;;;9.50;92.33
41624;BME280;27319;50.306;18.926;2022-10-31T04:43:04;98722.84;;;9.50;91.75
41624;BME280;27319;50.306;18.926;2022-10-31T04:47:04;98721.03;;;9.51;91.77
41624;BME280;27319;50.306;18.926;2022-10-31T04:51:05;98726.91;;;9.54;91.97
41624;BME280;27319;50.306;18.926;2022-10-31T04:55:06;98726.25;;;9.52;91.75
41624;BME280;27319;50.306;18.926;2022-10-31T04:59:06;98722.31;;;9.47;91.82
41624;BME280;27319;50.306;18.926;2022-10-31T05:02:49;98723.97;;;9.48;91.93
41624;BME280;27319;50.306;18.926;2022-10-31T05:05:51;98722.44;;;9.45;91.80
41624;BME280;27319;50.306;18.926;2022-10-31T05:08:52;98720.53;;;9.38;91.70
41624;BME280;27319;50.306;18.926;2022-10-31T05:11:53;98719.97;;;9.34;91.83
41624;BME280;27319;50.306;18.926;2022-10-31T05:14:54;98717.59;;;9.31;91.87
41624;BME280;27319;50.306;18.926;2022-10-31T05:17:55;98716.31;;;9.35;91.65
41624;BME280;27319;50.306;18.926;2022-10-31T05:20:56;98724.72;;;9.40;91.94
41624;BME280;27319;50.306;18.926;2022-10-31T05:24:16;98729.72;;;9.35;91.25
41624;BME280;27319;50.306;18.926;2022-10-31T05:28:17;98731.44;;;9.27;91.68
41624;BME280;27319;50.306;18.926;2022-10-31T05:32:18;98727.22;;;9.24;91.71
41624;BME280;27319;50.306;18.926;2022-10-31T05:36:18;98735.94;;;9.26;92.13
41624;BME280;27319;50.306;18.926;2022-10-31T05:40:19;98743.28;;;9.24;92.15
41624;BME280;27319;50.306;18.926;2022-10-31T05:44:19;98742.75;;;9.21;91.54
41624;BME280;27319;50.306;18.926;2022-10-31T05:48:20;98740.22;;;9.19;91.79
41624;BME280;27319;50.306;18.926;2022-10-31T05:52:21;98746.84;;;9.15;91.90
41624;BME280;27319;50.306;18.926;2022-10-31T05:56:21;98754.88;;;9.15;92.21
41624;BME280;27319;50.306;18.926;2022-10-31T06:00:22;98756.91;;;9.04;92.05
41624;BME280;27319;50.306;18.926;2022-10-31T06:04:22;98760.88;;;8.90;92.54
41624;BME280;27319;50.306;18.926;2022-10-31T06:08:23;98765.78;;;8.95;92.68
41624;BME280;27319;50.306;18.926;2022-10-31T06:12:24;98763.00;;;8.87;92.44
41624;BME280;27319;50.306;18.926;2022-10-31T06:16:25;98760.31;;;8.96;92.60
41624;BME280;27319;50.306;18.926;2022-10-31T06:20:25;98764.25;;;8.92;92.78
41624;BME280;27319;50.306;18.926;2022-10-31T06:24:26;98767.63;;;9.04;93.30
41624;BME280;27319;50.306;18.926;2022-10-31T06:28:26;98767.63;;;9.04;92.72
41624;BME280;27319;50.306;18.926;2022-10-31T06:32:10;98780.56;;;9.08;92.70
41624;BME280;27319;50.306;18.926;2022-10-31T06:35:12;98771.53;;;9.09;92.89
41624;BME280;27319;50.306;18.926;2022-10-31T06:38:18;98774.63;;;9.14;93.09
41624;BME280;27319;50.306;18.926;2022-10-31T06:41:19;98777.88;;;9.08;92.91
41624;BME280;27319;50.306;18.926;2022-10-31T06:44:20;98781.69;;;9.06;93.75
41624;BME280;27319;50.306;18.926;2022-10-31T06:47:21;98781.69;;;9.06;94.03
41624;BME280;27319;50.306;18.926;2022-10-31T06:50:22;98789.88;;;9.04;94.65
41624;BME280;27319;50.306;18.926;2022-10-31T06:53:23;98788.72;;;9.07;94.37
41624;BME280;27319;50.306;18.926;2022-10-31T06:56:24;98783.25;;;9.08;94.38
41624;BME280;27319;50.306;18.926;2022-10-31T06:59:41;98788.16;;;9.13;94.63
41624;BME280;27319;50.306;18.926;2022-10-31T07:02:42;98791.53;;;9.15;94.81
41624;BME280;27319;50.306;18.926;2022-10-31T07:05:43;98792.78;;;9.20;94.86
41624;BME280;27319;50.306;18.926;2022-10-31T07:08:47;98797.84;;;9.23;95.12
41624;BME280;27319;50.306;18.926;2022-10-31T07:12:08;98791.50;;;9.24;95.84
41624;BME280;27319;50.306;18.926;2022-10-31T07:15:26;98800.50;;;9.33;96.85
41624;BME280;27319;50.306;18.926;2022-10-31T07:18:27;98801.44;;;9.41;98.12
41624;BME280;27319;50.306;18.926;2022-10-31T07:21:28;98804.63;;;9.54;99.40
41624;BME280;27319;50.306;18.926;2022-10-31T07:24:29;98804.53;;;9.73;100.00
41624;BME280;27319;50.306;18.926;2022-10-31T07:27:42;98812.91;;;9.88;100.00
41624;BME280;27319;50.306;18.926;2022-10-31T07:30:51;98806.81;;;9.95;100.00
41624;BME280;27319;50.306;18.926;2022-10-31T07:33:52;98808.16;;;10.26;100.00
41624;BME280;27319;50.306;18.926;2022-10-31T07:36:53;98801.28;;;10.41;100.00
41624;BME280;27319;50.306;18.926;2022-10-31T07:39:54;98799.13;;;10.62;100.00
41624;BME280;27319;50.306;18.926;2022-10-31T07:42:57;98811.31;;;10.74;99.89
41624;BME280;27319;50.306;18.926;2022-10-31T07:45:58;98811.06;;;10.85;99.18
41624;BME280;27319;50.306;18.926;2022-10-31T07:48:59;98811.44;;;10.90;98.78
41624;BME280;27319;50.306;18.926;2022-10-31T07:52:00;98822.25;;;10.98;98.48
41624;BME280;27319;50.306;18.926;2022-10-31T07:55:09;98817.00;;;11.14;97.26
41624;BME280;27319;50.306;18.926;2022-10-31T07:58:30;98811.19;;;11.26;97.00
41624;BME280;27319;50.306;18.926;2022-10-31T08:02:30;98814.47;;;11.46;95.12
41624;BME280;27319;50.306;18.926;2022-10-31T08:06:07;98818.97;;;11.63;95.18
41624;BME280;27319;50.306;18.926;2022-10-31T08:09:27;98818.19;;;11.78;95.64
41624;BME280;27319;50.306;18.926;2022-10-31T08:12:45;98821.25;;;11.83;94.48
41624;BME280;27319;50.306;18.926;2022-10-31T08:15:46;98814.41;;;11.89;94.88
41624;BME280;27319;50.306;18.926;2022-10-31T08:18:50;98822.50;;;11.97;93.61
41624;BME280;27319;50.306;18.926;2022-10-31T08:21:59;98818.53;;;12.17;91.96
41624;BME280;27319;50.306;18.926;2022-10-31T08:25:00;98823.25;;;12.23;91.02
41624;BME280;27319;50.306;18.926;2022-10-31T08:28:02;98819.22;;;12.27;91.82
41624;BME280;27319;50.306;18.926;2022-10-31T08:31:19;98821.59;;;12.38;91.46
41624;BME280;27319;50.306;18.926;2022-10-31T08:34:19;98825.34;;;12.45;90.58
41624;BME280;27319;50.306;18.926;2022-10-31T08:37:22;98831.06;;;12.58;90.37
41624;BME280;27319;50.306;18.926;2022-10-31T08:40:24;98823.84;;;12.66;89.04
41624;BME280;27319;50.306;18.926;2022-10-31T08:43:31;98828.38;;;12.82;88.32
41624;BME280;27319;50.306;18.926;2022-10-31T08:46:32;98831.28;;;12.96;87.33
41624;BME280;27319;50.306;18.926;2022-10-31T08:49:53;98833.47;;;13.01;87.80
41624;BME280;27319;50.306;18.926;2022-10-31T08:53:53;98837.31;;;13.22;85.91
41624;BME280;27319;50.306;18.926;2022-10-31T08:57:55;98833.78;;;13.30;85.45
41624;BME280;27319;50.306;18.926;2022-10-31T09:01:34;98842.03;;;13.36;85.16
41624;BME280;27319;50.306;18.926;2022-10-31T09:04:55;98837.31;;;13.46;85.58
41624;BME280;27319;50.306;18.926;2022-10-31T09:08:16;98833.72;;;13.54;85.03
41624;BME280;27319;50.306;18.926;2022-10-31T09:12:17;98829.78;;;13.72;84.16
41624;BME280;27319;50.306;18.926;2022-10-31T09:16:17;98840.72;;;13.87;83.17
41624;BME280;27319;50.306;18.926;2022-10-31T09:20:18;98831.53;;;14.04;82.23
41624;BME280;27319;50.306;18.926;2022-10-31T09:23:59;98833.50;;;14.18;83.03
41624;BME280;27319;50.306;18.926;2022-10-31T09:27:20;98839.91;;;14.25;82.35
41624;BME280;27319;50.306;18.926;2022-10-31T09:31:20;98841.13;;;14.45;81.42
41624;BME280;27319;50.306;18.926;2022-10-31T09:35:21;98850.50;;;14.57;80.30
41624;BME280;27319;50.306;18.926;2022-10-31T09:39:21;98841.28;;;14.74;79.48
41624;BME280;27319;50.306;18.926;2022-10-31T09:43:05;98843.78;;;14.98;78.99
41624;BME280;27319;50.306;18.926;2022-10-31T09:47:11;98838.03;;;15.01;80.62
41624;BME280;27319;50.306;18.926;2022-10-31T09:51:10;98833.31;;;15.17;78.13
41624;BME280;27319;50.306;18.926;2022-10-31T09:55:17;98833.88;;;15.35;77.88
41624;BME280;27319;50.306;18.926;2022-10-31T09:58:44;98831.75;;;15.45;77.68
41624;BME280;27319;50.306;18.926;2022-10-31T10:01:51;98844.00;;;15.56;77.31
41624;BME280;27319;50.306;18.926;2022-10-31T10:04:59;98839.59;;;15.69;77.08
41624;BME280;27319;50.306;18.926;2022-10-31T10:08:10;98834.00;;;15.85;76.31
41624;BME280;27319;50.306;18.926;2022-10-31T10:11:36;98834.84;;;16.00;75.26
41624;BME280;27319;50.306;18.926;2022-10-31T10:15:46;98835.59;;;16.09;74.65
41624;BME280;27319;50.306;18.926;2022-10-31T10:29:38;98834.72;;;16.73;72.88
41624;BME280;27319;50.306;18.926;2022-10-31T10:32:56;98830.03;;;16.81;73.02
41624;BME280;27319;50.306;18.926;2022-10-31T10:36:40;98826.34;;;16.89;72.65
41624;BME280;27319;50.306;18.926;2022-10-31T10:39:46;98831.03;;;17.01;71.11
41624;BME280;27319;50.306;18.926;2022-10-31T10:43:26;98829.00;;;17.03;72.32
41624;BME280;27319;50.306;18.926;2022-10-31T10:46:41;98832.59;;;17.10;71.22
41624;BME280;27319;50.306;18.926;2022-10-31T10:50:07;98821.22;;;17.21;69.89
41624;BME280;27319;50.306;18.926;2022-10-31T11:00:39;98823.88;;;17.63;66.96
41624;BME280;27319;50.306;18.926;2022-10-31T11:03:41;98818.41;;;17.57;67.51
41624;BME280;27319;50.306;18.926;2022-10-31T11:06:55;98820.78;;;17.66;66.38
41624;BME280;27319;50.306;18.926;2022-10-31T11:10:04;98817.78;;;17.89;66.40
41624;BME280;27319;50.306;18.926;2022-10-31T11:19:32;98803.94;;;18.78;63.53
41624;BME280;27319;50.306;18.926;2022-10-31T11:22:32;98799.59;;;19.09;61.14
41624;BME280;27319;50.306;18.926;2022-10-31T11:25:33;98804.44;;;19.40;59.89
41624;BME280;27319;50.306;18.926;2022-10-31T11:28:34;98799.84;;;19.47;60.20
41624;BME280;27319;50.306;18.926;2022-10-31T11:31:35;98792.66;;;19.78;60.24
41624;BME280;27319;50.306;18.926;2022-10-31T11:34:42;98798.91;;;19.92;57.40
41624;BME280;27319;50.306;18.926;2022-10-31T11:37:45;98791.31;;;20.00;58.14
41624;BME280;27319;50.306;18.926;2022-10-31T11:41:17;98795.88;;;20.26;58.17
41624;BME280;27319;50.306;18.926;2022-10-31T11:44:27;98796.94;;;20.25;58.04
41624;BME280;27319;50.306;18.926;2022-10-31T11:47:49;98802.09;;;20.46;57.07
41624;BME280;27319;50.306;18.926;2022-10-31T11:51:50;98801.31;;;20.39;57.78
41624;BME280;27319;50.306;18.926;2022-10-31T11:55:34;98793.78;;;20.28;57.96
41624;BME280;27319;50.306;18.926;2022-10-31T11:58:36;98791.28;;;20.20;57.17
41624;BME280;27319;50.306;18.926;2022-10-31T12:01:55;98792.97;;;20.21;57.43
41624;BME280;27319;50.306;18.926;2022-10-31T12:05:10;98781.28;;;19.94;57.64
41624;BME280;27319;50.306;18.926;2022-10-31T12:08:17;98787.44;;;19.70;60.02
41624;BME280;27319;50.306;18.926;2022-10-31T12:21:37;98788.50;;;19.56;60.99
41624;BME280;27319;50.306;18.926;2022-10-31T12:32:15;98775.09;;;19.16;64.22
41624;BME280;27319;50.306;18.926;2022-10-31T12:36:04;98769.22;;;19.12;63.00
41624;BME280;27319;50.306;18.926;2022-10-31T12:39:33;98772.81;;;19.13;61.47
41624;BME280;27319;50.306;18.926;2022-10-31T12:47:03;98765.03;;;19.10;64.88
41624;BME280;27319;50.306;18.926;2022-10-31T12:51:10;98763.38;;;19.09;62.41
41624;BME280;27319;50.306;18.926;2022-10-31T12:59:13;98754.78;;;19.12;61.98
41624;BME280;27319;50.306;18.926;2022-10-31T13:02:50;98757.13;;;19.21;61.16
41624;BME280;27319;50.306;18.926;2022-10-31T13:06:50;98751.44;;;19.16;62.17
41624;BME280;27319;50.306;18.926;2022-10-31T13:14:47;98747.03;;;19.02;62.10
41624;BME280;27319;50.306;18.926;2022-10-31T13:22:23;98753.09;;;18.91;62.70
41624;BME280;27319;50.306;18.926;2022-10-31T13:25:46;98758.56;;;18.85;62.08
41624;BME280;27319;50.306;18.926;2022-10-31T13:30:03;98754.56;;;18.81;63.13
41624;BME280;27319;50.306;18.926;2022-10-31T13:33:48;98765.44;;;18.68;63.17
41624;BME280;27319;50.306;18.926;2022-10-31T13:46:48;98748.66;;;18.58;63.61
41624;BME280;27319;50.306;18.926;2022-10-31T13:53:40;98747.50;;;18.26;67.58
41624;BME280;27319;50.306;18.926;2022-10-31T14:04:46;98750.16;;;18.07;67.87
41624;BME280;27319;50.306;18.926;2022-10-31T14:08:48;98745.09;;;17.97;66.51
41624;BME280;27319;50.306;18.926;2022-10-31T14:12:51;98745.84;;;17.78;69.12
41624;BME280;27319;50.306;18.926;2022-10-31T14:16:32;98739.09;;;17.68;68.94
41624;BME280;27319;50.306;18.926;2022-10-31T14:19:38;98743.66;;;17.61;68.15
41624;BME280;27319;50.306;18.926;2022-10-31T14:23:09;98738.47;;;17.66;67.19
41624;BME280;27319;50.306;18.926;2022-10-31T14:27:04;98738.44;;;17.59;68.98
41624;BME280;27319;50.306;18.926;2022-10-31T14:31:21;98727.19;;;17.35;70.99
41624;BME280;27319;50.306;18.926;2022-10-31T14:38:14;98733.22;;;17.03;73.00
41624;BME280;27319;50.306;18.926;2022-10-31T14:42:05;98722.66;;;16.87;73.96
41624;BME280;27319;50.306;18.926;2022-10-31T14:46:05;98722.53;;;16.74;73.65
41624;BME280;27319;50.306;18.926;2022-10-31T14:54:05;98722.31;;;16.48;75.38
41624;BME280;27319;50.306;18.926;2022-10-31T14:58:06;98720.91;;;16.37;74.66
41624;BME280;27319;50.306;18.926;2022-10-31T15:02:08;98704.88;;;16.21;76.06
41624;BME280;27319;50.306;18.926;2022-10-31T15:05:31;98717.72;;;16.13;76.40
41624;BME280;27319;50.306;18.926;2022-10-31T15:09:44;98712.56;;;15.97;76.89
41624;BME280;27319;50.306;18.926;2022-10-31T15:13:25;98709.94;;;15.89;77.18
41624;BME280;27319;50.306;18.926;2022-10-31T15:16:30;98709.88;;;15.82;77.76
41624;BME280;27319;50.306;18.926;2022-10-31T15:19:33;98708.47;;;15.72;77.51
41624;BME280;27319;50.306;18.926;2022-10-31T15:22:55;98705.88;;;15.64;78.08
41624;BME280;27319;50.306;18.926;2022-10-31T15:26:55;98706.19;;;15.54;79.11
41624;BME280;27319;50.306;18.926;2022-10-31T15:30:57;98710.00;;;15.45;79.22
41624;BME280;27319;50.306;18.926;2022-10-31T15:34:59;98707.97;;;15.33;79.22
41624;BME280;27319;50.306;18.926;2022-10-31T15:38:40;98714.09;;;15.27;79.69
41624;BME280;27319;50.306;18.926;2022-10-31T15:42:41;98704.09;;;15.13;80.18
41624;BME280;27319;50.306;18.926;2022-10-31T15:46:41;98706.78;;;14.98;80.51
41624;BME280;27319;50.306;18.926;2022-10-31T15:50:49;98707.91;;;14.89;80.91
41624;BME280;27319;50.306;18.926;2022-10-31T15:54:29;98709.09;;;14.87;81.26
41624;BME280;27319;50.306;18.926;2022-10-31T15:57:30;98717.44;;;14.77;81.61
41624;BME280;27319;50.306;18.926;2022-10-31T16:00:58;98719.03;;;14.72;81.24
41624;BME280;27319;50.306;18.926;2022-10-31T16:04:50;98712.00;;;14.63;81.68
41624;BME280;27319;50.306;18.926;2022-10-31T16:08:45;98720.38;;;14.53;81.67
41624;BME280;27319;50.306;18.926;2022-10-31T16:12:44;98726.03;;;14.44;82.06
41624;BME280;27319;50.306;18.926;2022-10-31T16:16:31;98718.72;;;14.30;82.08
41624;BME280;27319;50.306;18.926;2022-10-31T16:20:40;98729.91;;;14.19;82.48
41624;BME280;27319;50.306;18.926;2022-10-31T16:28:15;98726.16;;;13.97;83.08
41624;BME280;27319;50.306;18.926;2022-10-31T16:32:36;98731.03;;;13.94;83.09
41624;BME280;27319;50.306;18.926;2022-10-31T16:35:56;98729.91;;;13.88;83.40
41624;BME280;27319;50.306;18.926;2022-10-31T16:39:21;98725.22;;;13.82;83.39
41624;BME280;27319;50.306;18.926;2022-10-31T16:43:22;98729.16;;;13.72;83.96
41624;BME280;27319;50.306;18.926;2022-10-31T16:47:31;98727.66;;;13.69;84.11
41624;BME280;27319;50.306;18.926;2022-10-31T16:51:32;98729.72;;;13.59;84.38
41624;BME280;27319;50.306;18.926;2022-10-31T16:55:33;98732.94;;;13.55;84.51
41624;BME280;27319;50.306;18.926;2022-10-31T16:59:33;98726.53;;;13.48;85.07
41624;BME280;27319;50.306;18.926;2022-10-31T17:03:34;98731.81;;;13.41;84.99
41624;BME280;27319;50.306;18.926;2022-10-31T17:07:34;98732.81;;;13.40;84.50
41624;BME280;27319;50.306;18.926;2022-10-31T17:11:35;98726.63;;;13.32;85.04
41624;BME280;27319;50.306;18.926;2022-10-31T17:15:05;98731.69;;;13.27;85.26
41624;BME280;27319;50.306;18.926;2022-10-31T17:18:26;98734.72;;;13.24;85.48
41624;BME280;27319;50.306;18.926;2022-10-31T17:22:27;98730.88;;;13.18;85.69
41624;BME280;27319;50.306;18.926;2022-10-31T17:26:28;98731.88;;;13.09;86.12
41624;BME280;27319;50.306;18.926;2022-10-31T17:30:29;98729.34;;;13.08;85.92
41624;BME280;27319;50.306;18.926;2022-10-31T17:34:29;98731.91;;;13.01;86.27
41624;BME280;27319;50.306;18.926;2022-10-31T17:38:29;98729.03;;;12.95;86.20
41624;BME280;27319;50.306;18.926;2022-10-31T17:42:10;98717.94;;;12.82;86.20
41624;BME280;27319;50.306;18.926;2022-10-31T17:45:31;98727.19;;;12.87;86.26
41624;BME280;27319;50.306;18.926;2022-10-31T17:49:32;98722.47;;;12.81;86.53
41624;BME280;27319;50.306;18.926;2022-10-31T17:53:33;98719.63;;;12.75;86.46
41624;BME280;27319;50.306;18.926;2022-10-31T17:57:33;98714.94;;;12.69;86.27
41624;BME280;27319;50.306;18.926;2022-10-31T18:01:16;98723.69;;;12.63;87.09
41624;BME280;27319;50.306;18.926;2022-10-31T18:04:37;98721.81;;;12.63;86.75
41624;BME280;27319;50.306;18.926;2022-10-31T18:08:34;98722.66;;;12.56;86.88
41624;BME280;27319;50.306;18.926;2022-10-31T18:11:35;98721.13;;;12.53;86.89
41624;BME280;27319;50.306;18.926;2022-10-31T18:14:55;98722.66;;;12.56;87.53
41624;BME280;27319;50.306;18.926;2022-10-31T18:18:56;98730.44;;;12.51;86.92
41624;BME280;27319;50.306;18.926;2022-10-31T18:22:56;98724.38;;;12.41;87.09
41624;BME280;27319;50.306;18.926;2022-10-31T18:26:57;98726.34;;;12.39;87.18
41624;BME280;27319;50.306;18.926;2022-10-31T18:30:58;98726.03;;;12.34;87.17
41624;BME280;27319;50.306;18.926;2022-10-31T18:34:58;98725.69;;;12.29;87.36
41624;BME280;27319;50.306;18.926;2022-10-31T18:38:59;98724.03;;;12.28;87.52
41624;BME280;27319;50.306;18.926;2022-10-31T18:43:00;98717.78;;;12.19;87.45
41624;BME280;27319;50.306;18.926;2022-10-31T18:47:00;98714.56;;;12.16;87.41
41624;BME280;27319;50.306;18.926;2022-10-31T18:51:02;98716.28;;;12.17;87.77
41624;BME280;27319;50.306;18.926;2022-10-31T18:55:01;98707.66;;;12.05;87.73
41624;BME280;27319;50.306;18.926;2022-10-31T18:59:02;98710.84;;;12.09;87.83
41624;BME280;27319;50.306;18.926;2022-10-31T19:03:03;98712.38;;;12.11;87.61
41624;BME280;27319;50.306;18.926;2022-10-31T19:07:03;98705.31;;;12.02;87.54
41624;BME280;27319;50.306;18.926;2022-10-31T19:11:07;98695.38;;;11.95;88.10
41624;BME280;27319;50.306;18.926;2022-10-31T19:15:07;98697.38;;;11.93;88.32
41624;BME280;27319;50.306;18.926;2022-10-31T19:19:08;98690.16;;;11.85;87.70
41624;BME280;27319;50.306;18.926;2022-10-31T19:23:08;98689.97;;;11.79;88.39
41624;BME280;27319;50.306;18.926;2022-10-31T19:26:57;98692.50;;;11.80;89.10
41624;BME280;27319;50.306;18.926;2022-10-31T19:30:00;98693.50;;;11.79;88.96
41624;BME280;27319;50.306;18.926;2022-10-31T19:33:08;98688.09;;;11.71;88.92
41624;BME280;27319;50.306;18.926;2022-10-31T19:36:35;98694.16;;;11.73;88.04
41624;BME280;27319;50.306;18.926;2022-10-31T19:40:35;98692.44;;;11.64;88.23
41624;BME280;27319;50.306;18.926;2022-10-31T19:44:36;98691.28;;;11.59;88.17
41624;BME280;27319;50.306;18.926;2022-10-31T19:48:16;98684.78;;;11.44;88.40
41624;BME280;27319;50.306;18.926;2022-10-31T19:51:25;98683.47;;;11.48;88.80
41624;BME280;27319;50.306;18.926;2022-10-31T19:55:25;98692.69;;;11.45;88.22
41624;BME280;27319;50.306;18.926;2022-10-31T19:59:26;98687.84;;;11.49;88.95
41624;BME280;27319;50.306;18.926;2022-10-31T20:03:26;98674.91;;;11.44;88.38
41624;BME280;27319;50.306;18.926;2022-10-31T20:07:07;98677.38;;;11.38;89.27
41624;BME280;27319;50.306;18.926;2022-10-31T20:10:28;98679.06;;;11.39;89.51
41624;BME280;27319;50.306;18.926;2022-10-31T20:14:29;98673.00;;;11.37;88.85
41624;BME280;27319;50.306;18.926;2022-10-31T20:18:29;98677.81;;;11.17;88.55
41624;BME280;27319;50.306;18.926;2022-10-31T20:22:30;98666.06;;;10.85;88.88
41624;BME280;27319;50.306;18.926;2022-10-31T20:26:31;98666.81;;;11.03;89.87
41624;BME280;27319;50.306;18.926;2022-10-31T20:30:33;98670.25;;;11.13;89.19
41624;BME280;27319;50.306;18.926;2022-10-31T20:34:12;98673.63;;;10.89;89.00
41624;BME280;27319;50.306;18.926;2022-10-31T20:37:14;98667.97;;;10.67;88.74
41624;BME280;27319;50.306;18.926;2022-10-31T20:40:34;98663.19;;;10.86;89.42
41624;BME280;27319;50.306;18.926;2022-10-31T20:44:15;98660.88;;;10.91;90.05